Time;durP1;ratioP1;P1;durP2;ratioP2;P2;SDS_P1;SDS_P2;PMS_P1;PMS_P2;Temp;Humidity;BMP_temperature;BMP_pressure;BME280_temperature;BME280_humidity;BME280_pressure;Samples;Min_cycle;Max_cycle;Signal;HPM_P1;HPM_P2
2023/09/06 00:02:08;;;;;;;4.25;3.35;;;;;;;-140.66;100.00;55571.53;5101365;28;20469;-72
2023/09/06 00:04:54;;;;;;;4.18;3.10;;;;;;;-140.66;100.00;55571.53;5099684;28;20050;-72
2023/09/06 00:07:40;;;;;;;4.10;3.22;;;;;;;-140.66;100.00;55571.53;5115914;28;20460;-72
2023/09/06 00:10:26;;;;;;;3.88;3.00;;;;;;;-140.66;100.00;55571.53;5115303;28;20408;-72
2023/09/06 00:13:13;;;;;;;4.65;3.13;;;;;;;-140.66;100.00;55571.53;5114536;28;20024;-72
2023/09/06 00:16:03;;;;;;;5.50;3.47;;;;;;;-140.66;100.00;55571.53;5113329;28;20023;-72
2023/09/06 00:18:50;;;;;;;16.63;3.78;;;;;;;-140.66;100.00;55571.53;5114470;28;20065;-71
2023/09/06 00:21:40;;;;;;;4.78;3.10;;;;;;;-140.66;100.00;55571.53;5114400;28;20027;-72
2023/09/06 00:24:26;;;;;;;5.25;2.85;;;;;;;-140.66;100.00;55571.53;5100035;28;20058;-72
2023/09/06 00:27:14;;;;;;;6.05;3.25;;;;;;;-140.66;100.00;55571.53;5100550;28;20028;-71
2023/09/06 00:29:59;;;;;;;5.15;3.05;;;;;;;-140.66;100.00;55571.53;5100173;28;20106;-71
2023/09/06 00:32:46;;;;;;;3.65;3.03;;;;;;;-140.66;100.00;55571.53;5114771;28;20020;-72
2023/09/06 00:35:32;;;;;;;7.25;3.08;;;;;;;-140.66;100.00;55571.53;5113587;28;20090;-72
2023/09/06 00:38:18;;;;;;;3.63;2.95;;;;;;;-140.66;100.00;55571.53;5099444;28;20027;-71
2023/09/06 00:41:04;;;;;;;4.63;2.90;;;;;;;-140.66;100.00;55571.53;5113821;28;20092;-71
2023/09/06 00:43:50;;;;;;;3.45;2.80;;;;;;;-140.66;100.00;55571.53;5099314;28;20039;-71
2023/09/06 00:46:37;;;;;;;5.50;3.15;;;;;;;-140.66;100.00;55571.53;5113549;28;20035;-71
2023/09/06 00:49:24;;;;;;;5.05;3.67;;;;;;;-140.66;100.00;55571.53;5114716;28;20023;-72
2023/09/06 00:52:10;;;;;;;4.57;3.15;;;;;;;-140.66;100.00;55571.53;5113747;28;20027;-71
2023/09/06 00:55:01;;;;;;;5.85;3.30;;;;;;;-140.66;100.00;55571.53;5114711;28;20124;-71
2023/09/06 00:57:47;;;;;;;5.32;3.53;;;;;;;-140.66;100.00;55571.53;5113706;28;20393;-71
2023/09/06 01:00:35;;;;;;;5.25;3.35;;;;;;;-140.66;100.00;55571.53;5114181;28;20032;-71
2023/09/06 01:03:20;;;;;;;5.07;3.50;;;;;;;-140.66;100.00;55571.53;5112715;28;20402;-71
2023/09/06 01:06:23;;;;;;;4.90;3.22;;;;;;;-140.66;100.00;55571.53;5114366;28;20190;-72
2023/09/06 01:09:09;;;;;;;4.47;3.30;;;;;;;-140.66;100.00;55571.53;5115372;28;20037;-71
2023/09/06 01:11:55;;;;;;;5.03;2.90;;;;;;;-140.66;100.00;55571.53;5113238;28;20356;-71
2023/09/06 01:14:41;;;;;;;4.20;3.45;;;;;;;-140.66;100.00;55571.53;5112960;28;20351;-71
2023/09/06 01:17:29;;;;;;;5.53;3.30;;;;;;;-140.66;100.00;55571.53;5114103;28;20050;-72
2023/09/06 01:20:36;;;;;;;7.47;3.28;;;;;;;-140.66;100.00;55571.53;5113137;28;20038;-71
2023/09/06 01:23:24;;;;;;;5.57;2.92;;;;;;;-140.66;100.00;55571.53;5112639;28;20453;-71
2023/09/06 01:26:10;;;;;;;3.50;3.15;;;;;;;-140.66;100.00;55571.53;5113152;28;20101;-71
2023/09/06 01:28:56;;;;;;;5.50;3.35;;;;;;;-140.66;100.00;55571.53;5112256;28;20373;-72
2023/09/06 01:31:41;;;;;;;5.80;3.35;;;;;;;-140.66;100.00;55571.53;5113477;28;20016;-72
2023/09/06 01:34:27;;;;;;;6.45;3.20;;;;;;;-140.66;100.00;55571.53;5112440;28;20020;-72
2023/09/06 01:37:13;;;;;;;5.22;3.70;;;;;;;-140.66;100.00;55571.53;5113406;28;20384;-72
2023/09/06 01:39:59;;;;;;;4.50;3.38;;;;;;;-140.66;100.00;55571.53;5099380;28;20035;-72
2023/09/06 01:42:45;;;;;;;6.18;3.33;;;;;;;-140.66;100.00;55571.53;5113475;28;20024;-72
2023/09/06 01:45:31;;;;;;;7.05;3.45;;;;;;;-140.66;100.00;55571.53;5113764;28;20075;-72
2023/09/06 01:48:19;;;;;;;6.00;3.30;;;;;;;-140.66;100.00;55571.53;5113791;28;20043;-72
2023/09/06 01:51:07;;;;;;;11.35;4.20;;;;;;;-140.66;100.00;55571.53;5115021;28;20034;-72
2023/09/06 01:53:53;;;;;;;8.13;4.00;;;;;;;-140.66;100.00;55571.53;5113160;28;20031;-72
2023/09/06 01:56:39;;;;;;;5.65;4.00;;;;;;;-140.66;100.00;55571.53;5113735;28;20028;-71
2023/09/06 01:59:25;;;;;;;7.15;4.20;;;;;;;-140.66;100.00;55571.53;5115780;28;20028;-71
2023/09/06 02:02:10;;;;;;;10.93;4.78;;;;;;;-140.66;100.00;55571.53;5116934;28;20084;-72
2023/09/06 02:04:56;;;;;;;6.90;4.85;;;;;;;-140.66;100.00;55571.53;5117800;28;20023;-71
2023/09/06 02:07:44;;;;;;;6.43;4.18;;;;;;;-140.66;100.00;55571.53;5104031;28;20027;-71
2023/09/06 02:10:29;;;;;;;9.52;4.72;;;;;;;-140.66;100.00;55571.53;5101248;28;20030;-73
2023/09/06 02:13:15;;;;;;;7.78;4.25;;;;;;;-140.66;100.00;55571.53;5118731;28;20099;-72
2023/09/06 02:16:01;;;;;;;6.80;3.78;;;;;;;-140.66;100.00;55571.53;5118328;28;20095;-71
2023/09/06 02:18:47;;;;;;;7.78;4.32;;;;;;;-140.66;100.00;55571.53;5117179;28;20063;-72
2023/09/06 02:21:34;;;;;;;6.45;4.07;;;;;;;-140.66;100.00;55571.53;5116680;28;20500;-72
2023/09/06 02:24:19;;;;;;;8.77;4.03;;;;;;;-140.66;100.00;55571.53;5101608;28;20036;-71
2023/09/06 02:27:05;;;;;;;8.63;4.35;;;;;;;-140.66;100.00;55571.53;5118142;28;20032;-73
2023/09/06 02:29:52;;;;;;;9.95;3.72;;;;;;;-140.66;100.00;55571.53;5118022;28;20440;-71
2023/09/06 02:32:38;;;;;;;5.13;3.67;;;;;;;-140.66;100.00;55571.53;5101288;28;20030;-71
2023/09/06 02:35:24;;;;;;;5.70;3.97;;;;;;;-140.66;100.00;55571.53;5103294;28;20106;-72
2023/09/06 02:38:11;;;;;;;7.93;3.95;;;;;;;-140.66;100.00;55571.53;5116126;28;20085;-71
2023/09/06 02:40:57;;;;;;;6.13;3.47;;;;;;;-140.66;100.00;55571.53;5117154;28;20039;-72
2023/09/06 02:43:43;;;;;;;5.07;3.42;;;;;;;-140.66;100.00;55571.53;5116618;28;20048;-72
2023/09/06 02:46:29;;;;;;;7.40;3.80;;;;;;;-140.66;100.00;55571.53;5116084;28;20046;-71
2023/09/06 02:49:15;;;;;;;12.70;4.30;;;;;;;-140.66;100.00;55571.53;5102278;28;20038;-72
2023/09/06 02:52:01;;;;;;;8.07;4.10;;;;;;;-140.66;100.00;55571.53;5101500;28;20016;-72
2023/09/06 02:54:47;;;;;;;5.65;3.90;;;;;;;-140.66;100.00;55571.53;5116818;28;20115;-71
2023/09/06 02:57:34;;;;;;;5.00;3.72;;;;;;;-140.66;100.00;55571.53;5102685;28;20365;-71
2023/09/06 03:00:29;;;;;;;5.75;3.60;;;;;;;-140.66;100.00;55571.53;5116652;28;20110;-71
2023/09/06 03:03:16;;;;;;;4.85;3.67;;;;;;;-140.66;100.00;55571.53;5114981;28;20032;-72
2023/09/06 03:06:04;;;;;;;6.07;3.65;;;;;;;-140.66;100.00;55571.53;5116936;28;20461;-72
2023/09/06 03:08:51;;;;;;;6.70;4.00;;;;;;;-140.66;100.00;55571.53;5116372;28;20067;-71
2023/09/06 03:11:37;;;;;;;5.05;3.60;;;;;;;-140.66;100.00;55571.53;5116348;28;20030;-72
2023/09/06 03:14:30;;;;;;;5.15;3.58;;;;;;;-140.66;100.00;55571.53;5101358;28;20056;-72
2023/09/06 03:17:18;;;;;;;5.85;3.58;;;;;;;-140.66;100.00;55571.53;5116824;28;20020;-72
2023/09/06 03:20:18;;;;;;;5.55;3.63;;;;;;;-140.66;100.00;55571.53;5117203;28;20077;-72
2023/09/06 03:23:17;;;;;;;4.60;3.30;;;;;;;-140.66;100.00;55571.53;5116383;28;20032;-72
2023/09/06 03:26:05;;;;;;;5.30;3.38;;;;;;;-140.66;100.00;55571.53;5116842;28;20375;-72
2023/09/06 03:28:55;;;;;;;4.55;3.10;;;;;;;-140.66;100.00;55571.53;5101369;28;20031;-72
2023/09/06 03:31:42;;;;;;;6.07;3.15;;;;;;;-140.66;100.00;55571.53;5116824;28;20024;-72
2023/09/06 03:34:28;;;;;;;9.35;3.13;;;;;;;-140.66;100.00;55571.53;5116724;28;20020;-72
2023/09/06 03:37:18;;;;;;;4.55;3.08;;;;;;;-140.66;100.00;55571.53;5116450;28;20097;-73
2023/09/06 03:40:25;;;;;;;5.22;3.33;;;;;;;-140.66;100.00;55571.53;5116784;28;20055;-73
2023/09/06 03:43:16;;;;;;;4.05;2.90;;;;;;;-140.66;100.00;55571.53;5115233;28;20524;-72
2023/09/06 03:46:07;;;;;;;6.20;3.45;;;;;;;-140.66;100.00;55571.53;5116608;28;20035;-71
2023/09/06 03:48:53;;;;;;;5.38;3.38;;;;;;;-140.66;100.00;55571.53;5116546;28;20028;-71
2023/09/06 03:51:39;;;;;;;5.53;3.47;;;;;;;-140.66;100.00;55571.53;5115670;28;20035;-73
2023/09/06 03:54:24;;;;;;;5.90;3.10;;;;;;;-140.66;100.00;55571.53;5114510;28;20027;-72
2023/09/06 03:57:13;;;;;;;6.75;3.40;;;;;;;-140.66;100.00;55571.53;5099588;28;20023;-72
2023/09/06 03:59:58;;;;;;;7.95;3.75;;;;;;;-140.66;100.00;55571.53;5116254;28;20027;-72
2023/09/06 04:02:45;;;;;;;4.22;3.10;;;;;;;-140.66;100.00;55571.53;5114673;28;20031;-71
2023/09/06 04:05:32;;;;;;;5.55;3.50;;;;;;;-140.66;100.00;55571.53;5116032;28;20460;-72
2023/09/06 04:08:18;;;;;;;9.50;3.50;;;;;;;-140.66;100.00;55571.53;5114873;28;20031;-72
2023/09/06 04:11:04;;;;;;;4.57;3.38;;;;;;;-140.66;100.00;55571.53;5116109;28;20030;-72
2023/09/06 04:13:51;;;;;;;4.65;3.20;;;;;;;-140.66;100.00;55571.53;5114864;28;20035;-72
2023/09/06 04:16:37;;;;;;;5.32;3.10;;;;;;;-140.66;100.00;55571.53;5099396;28;20039;-72
2023/09/06 04:19:23;;;;;;;5.40;3.03;;;;;;;-140.66;100.00;55571.53;5099188;28;20023;-71
2023/09/06 04:22:08;;;;;;;3.75;2.83;;;;;;;-140.66;100.00;55571.53;5114234;28;20020;-72
2023/09/06 04:24:54;;;;;;;5.90;3.25;;;;;;;-140.66;100.00;55571.53;5116300;28;20035;-72
2023/09/06 04:27:40;;;;;;;4.13;3.13;;;;;;;-140.66;100.00;55571.53;5115468;28;20023;-72
2023/09/06 04:30:32;;;;;;;6.32;3.17;;;;;;;-140.66;100.00;55571.53;5113705;28;20047;-75
2023/09/06 04:33:17;;;;;;;5.82;3.42;;;;;;;-140.66;100.00;55571.53;5115902;28;20020;-73
2023/09/06 04:36:07;;;;;;;7.00;3.53;;;;;;;-140.66;100.00;55571.53;5114460;28;20058;-72
2023/09/06 04:38:53;;;;;;;4.78;3.22;;;;;;;-140.66;100.00;55571.53;5114954;28;20039;-73
2023/09/06 04:41:39;;;;;;;6.53;3.60;;;;;;;-140.66;100.00;55571.53;5115206;28;20039;-73
2023/09/06 04:44:24;;;;;;;7.40;3.40;;;;;;;-140.66;100.00;55571.53;5113663;28;20051;-72
2023/09/06 04:47:14;;;;;;;5.18;3.03;;;;;;;-140.66;100.00;55571.53;5099786;28;20023;-72
2023/09/06 04:50:00;;;;;;;6.55;3.47;;;;;;;-140.66;100.00;55571.53;5099242;28;20096;-72
2023/09/06 04:52:47;;;;;;;4.90;3.47;;;;;;;-140.66;100.00;55571.53;5114569;28;20110;-72
2023/09/06 04:55:35;;;;;;;5.25;3.30;;;;;;;-140.66;100.00;55571.53;5114467;28;20023;-72
2023/09/06 04:58:21;;;;;;;5.13;3.20;;;;;;;-140.66;100.00;55571.53;5113825;28;20028;-73
2023/09/06 05:01:06;;;;;;;6.93;3.30;;;;;;;-140.66;100.00;55571.53;5113573;28;20020;-73
2023/09/06 05:03:52;;;;;;;6.05;3.05;;;;;;;-140.66;100.00;55571.53;5097894;28;20020;-71
2023/09/06 05:06:38;;;;;;;7.70;3.10;;;;;;;-140.66;100.00;55571.53;5114003;28;20019;-72
2023/09/06 05:09:24;;;;;;;4.90;3.05;;;;;;;-140.66;100.00;55571.53;5114295;28;20034;-72
2023/09/06 05:12:09;;;;;;;6.28;3.25;;;;;;;-140.66;100.00;55571.53;5114873;28;20023;-72
2023/09/06 05:14:55;;;;;;;7.45;3.50;;;;;;;-140.66;100.00;55571.53;5113116;28;20043;-71
2023/09/06 05:17:41;;;;;;;6.53;3.38;;;;;;;-140.66;100.00;55571.53;5114856;28;20110;-72
2023/09/06 05:20:27;;;;;;;7.30;3.13;;;;;;;-140.66;100.00;55571.53;5114838;28;20114;-72
2023/09/06 05:23:14;;;;;;;5.72;3.10;;;;;;;-140.66;100.00;55571.53;5098470;28;20030;-71
2023/09/06 05:26:00;;;;;;;11.18;3.35;;;;;;;-140.66;100.00;55571.53;5099293;28;20024;-72
2023/09/06 05:28:47;;;;;;;6.22;2.90;;;;;;;-140.66;100.00;55571.53;5113538;28;20038;-72
2023/09/06 05:31:33;;;;;;;3.97;2.88;;;;;;;-140.66;100.00;55571.53;5113317;28;20027;-72
2023/09/06 05:34:18;;;;;;;6.97;3.22;;;;;;;-140.66;100.00;55571.53;5099016;28;20093;-72
2023/09/06 05:37:04;;;;;;;5.50;3.80;;;;;;;-140.66;100.00;55571.53;5099996;28;20435;-72
2023/09/06 05:39:50;;;;;;;4.53;3.20;;;;;;;-140.66;100.00;55571.53;5113074;28;20020;-71
2023/09/06 05:42:37;;;;;;;3.95;2.78;;;;;;;-140.66;100.00;55571.53;5099306;28;20028;-72
2023/09/06 05:45:23;;;;;;;6.38;3.20;;;;;;;-140.66;100.00;55571.53;5113497;28;20058;-71
2023/09/06 05:48:08;;;;;;;7.40;3.35;;;;;;;-140.66;100.00;55571.53;5114068;28;20039;-71
2023/09/06 05:50:55;;;;;;;4.25;2.75;;;;;;;-140.66;100.00;55571.53;5114438;28;20102;-71
2023/09/06 05:53:41;;;;;;;12.32;2.90;;;;;;;-140.66;100.00;55571.53;5100282;28;20030;-71
2023/09/06 05:56:27;;;;;;;5.97;3.20;;;;;;;-140.66;100.00;55571.53;5114536;28;20042;-70
2023/09/06 05:59:14;;;;;;;8.50;3.33;;;;;;;-140.66;100.00;55571.53;5115832;28;20038;-72
2023/09/06 06:01:59;;;;;;;19.15;3.50;;;;;;;-140.66;100.00;55571.53;5102214;28;20407;-72
2023/09/06 06:04:45;;;;;;;7.43;3.05;;;;;;;-140.66;100.00;55571.53;5116011;28;20119;-73
2023/09/06 06:07:32;;;;;;;6.38;3.45;;;;;;;-140.66;100.00;55571.53;5102145;28;20089;-72
2023/09/06 06:10:18;;;;;;;6.60;3.35;;;;;;;-140.66;100.00;55571.53;5115900;28;20036;-74
2023/09/06 06:13:04;;;;;;;8.88;3.42;;;;;;;-140.66;100.00;55571.53;5101748;28;20169;-74
2023/09/06 06:15:50;;;;;;;5.63;3.47;;;;;;;-140.66;100.00;55571.53;5100451;28;20027;-72
2023/09/06 06:18:36;;;;;;;6.80;3.60;;;;;;;-140.66;100.00;55571.53;5113906;28;20059;-72
2023/09/06 06:21:24;;;;;;;14.43;3.60;;;;;;;-140.66;100.00;55571.53;5098570;28;20026;-73
2023/09/06 06:24:09;;;;;;;8.02;3.42;;;;;;;-140.66;100.00;55571.53;5113725;28;20467;-72
2023/09/06 06:26:55;;;;;;;5.50;3.58;;;;;;;-140.66;100.00;55571.53;5112774;28;20031;-73
2023/09/06 06:29:43;;;;;;;9.63;3.75;;;;;;;-140.66;100.00;55571.53;5112319;28;20032;-72
2023/09/06 06:32:29;;;;;;;6.75;3.58;;;;;;;-140.66;100.00;55571.53;5112878;28;20043;-73
2023/09/06 06:35:15;;;;;;;5.50;4.00;;;;;;;-140.66;100.00;55571.53;5114155;28;20034;-71
2023/09/06 06:38:02;;;;;;;7.30;3.42;;;;;;;-140.66;100.00;55571.53;5114136;28;20107;-73
2023/09/06 06:40:47;;;;;;;8.25;3.60;;;;;;;-140.66;100.00;55571.53;5101111;28;20542;-72
2023/09/06 06:43:33;;;;;;;8.50;3.88;;;;;;;-140.66;100.00;55571.53;5116258;28;20464;-72
2023/09/06 06:46:30;;;;;;;8.88;4.20;;;;;;;-140.66;100.00;55571.53;5119460;28;20027;-72
2023/09/06 06:49:16;;;;;;;8.13;4.18;;;;;;;-140.66;100.00;55571.53;5122909;28;20027;-72
2023/09/06 06:52:02;;;;;;;5.43;3.65;;;;;;;-140.66;100.00;55571.53;5120825;28;20027;-72
2023/09/06 06:54:48;;;;;;;7.38;4.10;;;;;;;-140.66;100.00;55571.53;5107664;28;20023;-72
2023/09/06 06:57:35;;;;;;;9.35;4.20;;;;;;;-140.66;100.00;55571.53;5122073;28;20111;-71
2023/09/06 07:00:21;;;;;;;6.85;4.43;;;;;;;-140.66;100.00;55571.53;5106267;28;20027;-72
2023/09/06 07:03:09;;;;;;;7.38;4.18;;;;;;;-140.66;100.00;55571.53;5118616;28;20032;-71
2023/09/06 07:05:55;;;;;;;6.60;4.30;;;;;;;-140.66;100.00;55571.53;5117938;28;20043;-72
2023/09/06 07:08:41;;;;;;;7.35;4.10;;;;;;;-140.66;100.00;55571.53;5117364;28;20034;-73
2023/09/06 07:11:27;;;;;;;8.35;4.60;;;;;;;-140.66;100.00;55571.53;5118353;28;20031;-73
2023/09/06 07:14:13;;;;;;;9.30;4.35;;;;;;;-140.66;100.00;55571.53;5117210;28;20354;-71
2023/09/06 07:16:59;;;;;;;19.25;5.55;;;;;;;-140.66;100.00;55571.53;5101705;28;20027;-72
2023/09/06 07:19:45;;;;;;;14.68;4.72;;;;;;;-140.66;100.00;55571.53;5117211;28;20110;-72
2023/09/06 07:22:30;;;;;;;11.60;4.95;;;;;;;-140.66;100.00;55571.53;5101480;28;20019;-72
2023/09/06 07:25:16;;;;;;;6.15;4.63;;;;;;;-140.66;100.00;55571.53;5115886;28;20049;-72
2023/09/06 07:28:02;;;;;;;6.55;4.47;;;;;;;-140.66;100.00;55571.53;5115772;28;20028;-71
2023/09/06 07:30:48;;;;;;;7.70;4.50;;;;;;;-140.66;100.00;55571.53;5101635;28;20432;-71
2023/09/06 07:33:35;;;;;;;7.55;4.90;;;;;;;-140.66;100.00;55571.53;5116235;28;20042;-72
2023/09/06 07:36:20;;;;;;;12.32;5.18;;;;;;;-140.66;100.00;55571.53;5117096;28;20039;-72
2023/09/06 07:39:08;;;;;;;9.23;4.88;;;;;;;-140.66;100.00;55571.53;5102382;28;20035;-72
2023/09/06 07:41:55;;;;;;;9.32;4.70;;;;;;;-140.66;100.00;55571.53;5116883;28;20104;-72
2023/09/06 07:44:40;;;;;;;7.43;4.30;;;;;;;-140.66;100.00;55571.53;5115174;28;20048;-72
2023/09/06 07:47:26;;;;;;;6.88;4.65;;;;;;;-140.66;100.00;55571.53;5116814;28;20035;-72
2023/09/06 07:50:12;;;;;;;12.65;4.65;;;;;;;-140.66;100.00;55571.53;5116808;28;20475;-73
2023/09/06 07:52:58;;;;;;;11.02;5.00;;;;;;;-140.66;100.00;55571.53;5116195;28;20015;-72
2023/09/06 07:55:47;;;;;;;19.55;4.80;;;;;;;-140.66;100.00;55571.53;5114484;28;20027;-72
2023/09/06 07:58:33;;;;;;;7.50;4.22;;;;;;;-140.66;100.00;55571.53;5115355;28;20041;-71
2023/09/06 08:01:19;;;;;;;9.85;4.53;;;;;;;-140.66;100.00;55571.53;5114505;28;20046;-72
2023/09/06 08:04:05;;;;;;;7.20;4.47;;;;;;;-140.66;100.00;55571.53;5115076;28;20051;-72
2023/09/06 08:06:51;;;;;;;16.95;5.13;;;;;;;-140.66;100.00;55571.53;5114195;28;20096;-72
2023/09/06 08:09:38;;;;;;;8.75;4.43;;;;;;;-140.66;100.00;55571.53;5114667;28;20096;-73
2023/09/06 08:12:23;;;;;;;14.25;4.97;;;;;;;-140.66;100.00;55571.53;5115284;28;20092;-72
2023/09/06 08:15:09;;;;;;;8.07;4.72;;;;;;;-140.66;100.00;55571.53;5115012;28;20016;-73
2023/09/06 08:17:55;;;;;;;8.65;5.30;;;;;;;-140.66;100.00;55571.53;5114844;28;20508;-73
2023/09/06 08:20:41;;;;;;;12.35;5.20;;;;;;;-140.66;100.00;55571.53;5114684;28;20102;-72
2023/09/06 08:23:26;;;;;;;7.97;4.57;;;;;;;-140.66;100.00;55571.53;5114702;28;20039;-72
2023/09/06 08:26:13;;;;;;;10.32;4.65;;;;;;;-140.66;100.00;55571.53;5116035;28;20034;-72
2023/09/06 08:28:59;;;;;;;7.32;4.47;;;;;;;-140.66;100.00;55571.53;5115379;28;20024;-73
2023/09/06 08:31:45;;;;;;;8.70;4.57;;;;;;;-140.66;100.00;55571.53;5114026;28;20134;-72
2023/09/06 08:34:32;;;;;;;8.07;4.78;;;;;;;-140.66;100.00;55571.53;5116052;28;20043;-73
2023/09/06 08:37:18;;;;;;;10.52;4.50;;;;;;;-140.66;100.00;55571.53;5114942;28;20023;-73
2023/09/06 08:40:05;;;;;;;8.35;4.78;;;;;;;-140.66;100.00;55571.53;5115435;28;20354;-73
2023/09/06 08:42:53;;;;;;;16.48;4.97;;;;;;;-140.66;100.00;55571.53;5113623;28;20410;-72
2023/09/06 08:45:42;;;;;;;8.10;4.03;;;;;;;-140.66;100.00;55571.53;5115213;28;20075;-71
2023/09/06 08:48:28;;;;;;;11.80;4.75;;;;;;;-140.66;100.00;55571.53;5114094;28;20533;-72
2023/09/06 08:51:15;;;;;;;12.25;4.25;;;;;;;-140.66;100.00;55571.53;5114227;28;20042;-72
2023/09/06 08:54:04;;;;;;;6.70;4.20;;;;;;;-140.66;100.00;55571.53;5114756;28;20049;-73
2023/09/06 08:56:51;;;;;;;9.98;4.50;;;;;;;-140.66;100.00;55571.53;5114671;28;20123;-72
2023/09/06 08:59:38;;;;;;;7.05;4.05;;;;;;;-140.66;100.00;55571.53;5114336;28;20027;-74
2023/09/06 09:02:24;;;;;;;11.02;3.72;;;;;;;-140.66;100.00;55571.53;5114705;28;20028;-73
2023/09/06 09:05:11;;;;;;;11.52;4.25;;;;;;;-140.66;100.00;55571.53;5098440;28;20032;-73
2023/09/06 09:07:59;;;;;;;8.75;4.25;;;;;;;-140.66;100.00;55571.53;5112615;28;20453;-73
2023/09/06 09:10:45;;;;;;;26.23;4.90;;;;;;;-140.66;100.00;55571.53;5114870;28;20453;-73
2023/09/06 09:13:30;;;;;;;13.13;4.20;;;;;;;-140.66;100.00;55571.53;5115347;28;20039;-72
2023/09/06 09:16:17;;;;;;;15.15;4.15;;;;;;;-140.66;100.00;55571.53;5114634;28;20042;-72
2023/09/06 09:19:03;;;;;;;8.00;3.90;;;;;;;-140.66;100.00;55571.53;5114346;28;20038;-73
2023/09/06 09:21:55;;;;;;;8.13;3.60;;;;;;;-140.66;100.00;55571.53;5100801;28;20503;-72
2023/09/06 09:24:40;;;;;;;10.80;4.00;;;;;;;-140.66;100.00;55571.53;5113647;28;20370;-72
2023/09/06 09:27:27;;;;;;;10.43;4.63;;;;;;;-140.66;100.00;55571.53;5112735;28;20042;-72
2023/09/06 09:30:16;;;;;;;6.53;4.28;;;;;;;-140.66;100.00;55571.53;5099530;28;20365;-73
2023/09/06 09:33:04;;;;;;;7.55;4.03;;;;;;;-140.66;100.00;55571.53;5113023;28;20038;-72
2023/09/06 09:35:50;;;;;;;15.68;4.85;;;;;;;-140.66;100.00;55571.53;5099653;28;20390;-71
2023/09/06 09:38:41;;;;;;;5.53;4.00;;;;;;;-140.66;100.00;55571.53;5098659;28;20042;-72
2023/09/06 09:41:31;;;;;;;10.27;4.35;;;;;;;-140.66;100.00;55571.53;5113987;28;20023;-71
2023/09/06 09:44:19;;;;;;;15.43;4.40;;;;;;;-140.66;100.00;55571.53;5114064;28;20048;-72
2023/09/06 09:47:13;;;;;;;8.07;4.00;;;;;;;-140.66;100.00;55571.53;5099708;28;20137;-72
2023/09/06 09:50:01;;;;;;;8.95;3.83;;;;;;;-140.66;100.00;55571.53;5113912;28;20042;-72
2023/09/06 09:52:48;;;;;;;12.77;3.83;;;;;;;-140.66;100.00;55571.53;5115255;28;20038;-72
2023/09/06 09:55:40;;;;;;;7.28;3.83;;;;;;;-140.66;100.00;55571.53;5098776;28;20024;-71
2023/09/06 09:58:27;;;;;;;6.82;3.55;;;;;;;-140.66;100.00;55571.53;5113269;28;20117;-71
2023/09/06 10:01:14;;;;;;;11.02;4.38;;;;;;;-140.66;100.00;55571.53;5113495;28;20032;-71
2023/09/06 10:04:05;;;;;;;12.50;4.60;;;;;;;-140.66;100.00;55571.53;5113957;28;20020;-71
2023/09/06 10:06:51;;;;;;;7.20;4.00;;;;;;;-140.66;100.00;55571.53;5114431;28;20020;-72
2023/09/06 10:09:42;;;;;;;10.30;3.78;;;;;;;-140.66;100.00;55571.53;5112525;28;20032;-72
2023/09/06 10:12:28;;;;;;;13.82;4.18;;;;;;;-140.66;100.00;55571.53;5113274;28;20119;-72
2023/09/06 10:15:14;;;;;;;8.43;3.88;;;;;;;-140.66;100.00;55571.53;5112546;28;20140;-72
2023/09/06 10:18:00;;;;;;;13.90;4.93;;;;;;;-140.66;100.00;55571.53;5098861;28;20467;-72
2023/09/06 10:20:46;;;;;;;15.63;4.50;;;;;;;-140.66;100.00;55571.53;5118635;28;20039;-72
2023/09/06 10:23:42;;;;;;;12.40;3.95;;;;;;;-140.66;100.00;55571.53;5119224;28;20096;-72
2023/09/06 10:26:35;;;;;;;9.40;3.95;;;;;;;-140.66;100.00;55571.53;5116836;28;20031;-72
2023/09/06 10:29:28;;;;;;;7.60;4.38;;;;;;;-140.66;100.00;55571.53;5117464;28;20472;-73
2023/09/06 10:32:13;;;;;;;8.73;4.13;;;;;;;-140.66;100.00;55571.53;5118147;28;20475;-72
2023/09/06 10:35:21;;;;;;;7.18;4.30;;;;;;;-140.66;100.00;55571.53;5117291;28;20015;-72
2023/09/06 10:38:14;;;;;;;5.35;4.20;;;;;;;-140.66;100.00;55571.53;5117120;28;20023;-72
2023/09/06 10:41:00;;;;;;;7.47;4.10;;;;;;;-140.66;100.00;55571.53;5117249;28;20415;-72
2023/09/06 10:43:54;;;;;;;6.57;3.70;;;;;;;-140.66;100.00;55571.53;5102412;28;20090;-71
2023/09/06 10:46:40;;;;;;;7.20;3.70;;;;;;;-140.66;100.00;55571.53;5089654;28;20019;-72
2023/09/06 10:49:25;;;;;;;7.38;3.50;;;;;;;-140.66;100.00;55571.53;5117133;28;20342;-72
2023/09/06 10:52:11;;;;;;;5.88;3.80;;;;;;;-140.66;100.00;55571.53;5117025;28;20028;-72
2023/09/06 10:54:58;;;;;;;20.98;4.30;;;;;;;-140.66;100.00;55571.53;5117016;28;20369;-72
2023/09/06 10:58:08;;;;;;;6.13;3.60;;;;;;;-140.66;100.00;55571.53;5116708;28;20084;-72
2023/09/06 11:01:12;;;;;;;4.75;3.53;;;;;;;-140.66;100.00;55571.53;5117088;28;20112;-73
2023/09/06 11:03:58;;;;;;;5.53;3.80;;;;;;;-140.66;100.00;55571.53;5116538;28;20051;-72
2023/09/06 11:06:54;;;;;;;8.20;3.60;;;;;;;-140.66;100.00;55571.53;5115730;28;20472;-72
2023/09/06 11:09:43;;;;;;;8.52;3.50;;;;;;;-140.66;100.00;55571.53;5117123;28;20027;-72
2023/09/06 11:12:30;;;;;;;9.45;3.83;;;;;;;-140.66;100.00;55571.53;5117225;28;20019;-71
2023/09/06 11:15:15;;;;;;;9.23;3.85;;;;;;;-140.66;100.00;55571.53;5117224;28;20118;-71
2023/09/06 11:18:02;;;;;;;6.75;3.47;;;;;;;-140.66;100.00;55571.53;5102871;28;20023;-73
2023/09/06 11:20:49;;;;;;;6.82;3.25;;;;;;;-140.66;100.00;55571.53;5115555;28;20024;-72
2023/09/06 11:23:50;;;;;;;5.10;3.38;;;;;;;-140.66;100.00;55571.53;5116957;28;20446;-71
2023/09/06 11:26:37;;;;;;;14.05;4.05;;;;;;;-140.66;100.00;55571.53;5115393;28;20092;-72
2023/09/06 11:29:26;;;;;;;8.45;3.75;;;;;;;-140.66;100.00;55571.53;5101673;28;20366;-71
2023/09/06 11:32:12;;;;;;;7.15;3.53;;;;;;;-140.66;100.00;55571.53;5100338;28;20019;-72
2023/09/06 11:34:58;;;;;;;8.80;3.42;;;;;;;-140.66;100.00;55571.53;5117588;28;20027;-73
2023/09/06 11:37:50;;;;;;;5.88;3.30;;;;;;;-140.66;100.00;55571.53;5101898;28;20031;-72
2023/09/06 11:40:37;;;;;;;6.10;3.45;;;;;;;-140.66;100.00;55571.53;5102236;28;20031;-72
2023/09/06 11:43:24;;;;;;;6.82;3.63;;;;;;;-140.66;100.00;55571.53;5100972;28;20032;-72
2023/09/06 11:46:12;;;;;;;7.85;3.60;;;;;;;-140.66;100.00;55571.53;5116322;28;20063;-73
2023/09/06 11:48:58;;;;;;;5.47;3.40;;;;;;;-140.66;100.00;55571.53;5116548;28;20066;-72
2023/09/06 11:51:47;;;;;;;6.75;3.60;;;;;;;-140.66;100.00;55571.53;5115279;28;20364;-72
2023/09/06 11:54:38;;;;;;;6.95;3.65;;;;;;;-140.66;100.00;55571.53;5101093;28;20077;-71
2023/09/06 11:57:27;;;;;;;11.15;3.40;;;;;;;-140.66;100.00;55571.53;5100341;28;20019;-73
2023/09/06 12:00:27;;;;;;;11.80;4.30;;;;;;;-140.66;100.00;55571.53;5115114;28;20023;-73
2023/09/06 12:03:20;;;;;;;14.23;4.00;;;;;;;-140.66;100.00;55571.53;5116827;28;20027;-72
2023/09/06 12:06:08;;;;;;;19.10;4.20;;;;;;;-140.66;100.00;55571.53;5115026;28;20027;-72
2023/09/06 12:08:55;;;;;;;9.40;3.60;;;;;;;-140.66;100.00;55571.53;5115708;28;20070;-73
2023/09/06 12:11:41;;;;;;;8.18;3.78;;;;;;;-140.66;100.00;55571.53;5116933;28;20024;-72
2023/09/06 12:14:28;;;;;;;13.07;3.97;;;;;;;-140.66;100.00;55571.53;5114469;28;20024;-72
2023/09/06 12:17:14;;;;;;;39.97;5.00;;;;;;;-140.66;100.00;55571.53;5115608;28;20023;-72
2023/09/06 12:20:00;;;;;;;13.00;4.00;;;;;;;-140.66;100.00;55571.53;5115591;28;20093;-71
2023/09/06 12:22:46;;;;;;;16.13;4.18;;;;;;;-140.66;100.00;55571.53;5113940;28;20099;-72
2023/09/06 12:25:32;;;;;;;84.00;7.45;;;;;;;-140.66;100.00;55571.53;5115931;28;20475;-73
2023/09/06 12:28:18;;;;;;;12.25;3.90;;;;;;;-140.66;100.00;55571.53;5114941;28;20027;-73
2023/09/06 12:31:05;;;;;;;5.38;3.50;;;;;;;-140.66;100.00;55571.53;5114405;28;20110;-72
2023/09/06 12:33:51;;;;;;;8.20;3.58;;;;;;;-140.66;100.00;55571.53;5113959;28;20035;-73
2023/09/06 12:36:37;;;;;;;6.20;3.88;;;;;;;-140.66;100.00;55571.53;5114999;28;20023;-73
2023/09/06 12:39:23;;;;;;;23.38;4.50;;;;;;;-140.66;100.00;55571.53;5099666;28;20020;-73